createdAt,value
2022-08-03T00:02:43.420Z,58.50
2022-08-03T00:05:40.409Z,55.50
2022-08-03T00:08:57.509Z,54.25
2022-08-03T00:11:54.462Z,57.75
2022-08-03T00:14:51.290Z,57.50
2022-08-03T00:17:52.375Z,59.00
2022-08-03T00:20:51.209Z,59.75
2022-08-03T00:23:52.348Z,60.50
2022-08-03T00:26:50.665Z,62.00
2022-08-03T00:29:59.391Z,60.00
2022-08-03T00:32:57.862Z,63.00
2022-08-03T00:35:56.417Z,59.75
2022-08-03T00:38:53.245Z,57.50
2022-08-03T00:41:50.592Z,58.25
2022-08-03T00:44:47.631Z,57.75
2022-08-03T00:47:45.293Z,63.50
2022-08-03T00:50:42.849Z,61.75
2022-08-03T00:53:39.331Z,62.00
2022-08-03T00:56:36.731Z,63.25
2022-08-03T00:59:34.632Z,59.75
2022-08-03T01:02:31.490Z,59.25
2022-08-03T01:05:28.733Z,63.50
2022-08-03T01:08:30.958Z,62.25
2022-08-03T01:12:00.991Z,60.75
2022-08-03T01:15:16.053Z,60.50
2022-08-03T01:18:18.854Z,63.50
2022-08-03T01:21:31.905Z,60.75
2022-08-03T01:24:33.366Z,61.75
2022-08-03T01:27:52.683Z,62.25
2022-08-03T01:30:49.529Z,62.00
2022-08-03T01:33:58.556Z,63.50
2022-08-03T01:36:57.007Z,64.00
2022-08-03T01:39:55.400Z,64.75
2022-08-03T01:42:55.083Z,65.25
2022-08-03T01:45:52.552Z,61.50
2022-08-03T01:48:49.539Z,64.00
2022-08-03T01:52:04.335Z,67.25
2022-08-03T01:55:02.289Z,63.25
2022-08-03T01:58:05.468Z,65.50
2022-08-03T02:01:03.897Z,64.00
2022-08-03T02:04:01.758Z,65.00
2022-08-03T02:07:01.873Z,65.25
2022-08-03T02:10:00.825Z,63.50
2022-08-03T02:12:57.918Z,66.00
2022-08-03T02:15:55.654Z,63.75
2022-08-03T02:18:52.456Z,66.25
2022-08-03T02:21:57.172Z,65.75
2022-08-03T02:24:58.761Z,67.25
2022-08-03T02:27:58.342Z,68.50
2022-08-03T02:30:55.628Z,69.25
2022-08-03T02:33:54.615Z,67.00
2022-08-03T02:36:51.553Z,66.75
2022-08-03T02:39:48.766Z,66.50
2022-08-03T02:42:45.375Z,68.00
2022-08-03T02:45:45.683Z,64.75
2022-08-03T02:48:42.868Z,68.75
2022-08-03T02:51:39.789Z,66.00
2022-08-03T02:54:36.807Z,67.25
2022-08-03T02:57:33.806Z,64.25
2022-08-03T03:00:31.737Z,64.75
2022-08-03T03:03:29.816Z,66.75
2022-08-03T03:06:32.690Z,68.25
2022-08-03T03:09:40.095Z,69.00
2022-08-03T03:12:37.969Z,68.00
2022-08-03T03:15:37.169Z,67.75
2022-08-03T03:18:35.078Z,66.75
2022-08-03T03:21:32.961Z,67.25
2022-08-03T03:24:30.797Z,69.00
2022-08-03T03:27:27.807Z,69.75
2022-08-03T03:30:27.185Z,68.50
2022-08-03T03:33:24.778Z,68.25
2022-08-03T03:36:21.689Z,65.50
2022-08-03T03:39:18.642Z,69.00
2022-08-03T03:42:16.115Z,71.50
2022-08-03T03:45:13.896Z,69.00
2022-08-03T03:48:10.889Z,67.00
2022-08-03T03:51:07.772Z,67.75
2022-08-03T03:54:07.750Z,68.50
2022-08-03T03:57:04.739Z,66.75
2022-08-03T04:00:01.723Z,72.00
2022-08-03T04:03:01.960Z,67.00
2022-08-03T04:06:18.661Z,68.50
2022-08-03T04:09:34.270Z,71.00
2022-08-03T04:12:31.586Z,68.00
2022-08-03T04:15:28.737Z,66.75
2022-08-03T04:18:26.553Z,66.00
2022-08-03T04:21:24.663Z,67.00
2022-08-03T04:24:21.828Z,67.25
2022-08-03T04:27:25.271Z,66.75
2022-08-03T04:30:22.399Z,66.00
2022-08-03T04:33:19.982Z,67.25
2022-08-03T04:36:19.069Z,66.00
2022-08-03T04:39:29.950Z,67.50
2022-08-03T04:42:26.829Z,70.00
2022-08-03T04:45:23.699Z,67.75
2022-08-03T04:48:20.596Z,68.25
2022-08-03T04:51:17.424Z,71.00
2022-08-03T04:54:16.144Z,67.50
2022-08-03T04:57:22.320Z,67.75
2022-08-03T05:00:21.000Z,68.00
2022-08-03T05:03:23.935Z,68.00
2022-08-03T05:06:25.149Z,72.25
2022-08-03T05:09:50.706Z,71.25
2022-08-03T05:12:39.851Z,67.75
2022-08-03T05:15:36.593Z,74.25
2022-08-03T05:18:43.944Z,68.00
2022-08-03T05:21:51.788Z,66.25
2022-08-03T05:24:50.815Z,73.00
2022-08-03T05:27:48.058Z,71.75
2022-08-03T05:30:46.367Z,70.00
2022-08-03T05:33:44.809Z,76.25
2022-08-03T05:36:41.920Z,74.25
2022-08-03T05:39:38.832Z,75.50
2022-08-03T05:42:38.024Z,73.00
2022-08-03T05:45:34.897Z,74.75
2022-08-03T05:48:31.979Z,76.33
2022-08-03T05:51:29.024Z,75.00
2022-08-03T05:54:26.091Z,78.25
2022-08-03T05:57:43.723Z,77.00
2022-08-03T06:00:41.853Z,76.00
2022-08-03T06:03:38.825Z,77.33
2022-08-03T06:06:35.975Z,74.00
2022-08-03T06:10:33.970Z,76.00
2022-08-03T06:12:51.013Z,78.00
2022-08-03T06:15:47.669Z,76.00
2022-08-03T06:18:46.073Z,79.33
2022-08-03T06:21:43.035Z,77.33
2022-08-03T06:24:53.270Z,72.75
2022-08-03T06:27:51.136Z,79.00
2022-08-03T06:30:48.635Z,80.00
2022-08-03T06:34:30.543Z,80.67
2022-08-03T06:37:03.715Z,84.00
2022-08-03T06:40:00.709Z,79.25
2022-08-03T06:42:58.242Z,75.00
2022-08-03T06:45:55.775Z,82.00
2022-08-03T06:48:52.986Z,81.00
2022-08-03T06:52:05.293Z,76.25
2022-08-03T06:55:09.819Z,77.25
2022-08-03T06:58:06.769Z,76.00
2022-08-03T07:01:03.875Z,77.50
2022-08-03T07:04:01.323Z,73.00
2022-08-03T07:06:59.106Z,78.00
2022-08-03T07:09:57.716Z,72.00
2022-08-03T07:12:55.761Z,74.75
2022-08-03T07:15:56.016Z,68.75
2022-08-03T07:18:53.963Z,74.00
2022-08-03T07:21:51.223Z,70.25
2022-08-03T07:24:50.612Z,60.00
2022-08-03T07:27:51.734Z,71.75
2022-08-03T07:30:49.065Z,73.75
2022-08-03T07:33:46.177Z,74.25
2022-08-03T07:36:43.952Z,70.50
2022-08-03T07:39:40.837Z,36.00
2022-08-03T07:42:37.891Z,72.75
2022-08-03T07:45:35.157Z,65.75
2022-08-03T07:48:32.898Z,71.50
2022-08-03T07:51:30.296Z,71.75
2022-08-03T07:54:27.771Z,231.75
2022-08-03T07:57:24.754Z,67.75
2022-08-03T08:00:21.993Z,61.25
2022-08-03T08:03:19.116Z,10.40
2022-08-03T08:06:15.825Z,58.00
2022-08-03T08:09:14.124Z,66.00
2022-08-03T08:12:15.282Z,64.75
2022-08-03T08:15:13.104Z,66.25
2022-08-03T08:18:10.022Z,64.50
2022-08-03T08:21:06.896Z,72.50
2022-08-03T08:24:11.441Z,64.75
2022-08-03T08:27:16.001Z,65.75
2022-08-03T08:30:17.332Z,391.75
2022-08-03T08:33:22.403Z,62.50
2022-08-03T08:36:20.180Z,67.25
2022-08-03T08:39:17.542Z,67.25
2022-08-03T08:42:17.331Z,58.50
2022-08-03T08:45:15.744Z,69.00
2022-08-03T08:48:13.426Z,65.00
2022-08-03T08:51:11.941Z,66.25
2022-08-03T08:54:09.549Z,29.00
2022-08-03T08:57:21.272Z,36.25
2022-08-03T09:00:23.782Z,66.00
2022-08-03T09:03:22.742Z,13.40
2022-08-03T09:06:27.885Z,10.80
2022-08-03T09:09:28.442Z,63.50
2022-08-03T09:12:46.057Z,61.75
2022-08-03T09:15:57.142Z,69.75
2022-08-03T09:19:02.096Z,62.75
2022-08-03T09:22:15.137Z,70.25
2022-08-03T09:25:24.389Z,8.20
2022-08-03T09:28:59.388Z,51.25
2022-08-03T09:31:43.159Z,62.00
2022-08-03T09:34:41.063Z,64.00
2022-08-03T09:38:12.497Z,67.50
2022-08-03T09:40:59.486Z,67.50
2022-08-03T09:43:57.940Z,65.75
2022-08-03T09:46:58.389Z,66.75
2022-08-03T09:49:58.008Z,65.50
2022-08-03T09:52:57.645Z,68.00
2022-08-03T09:56:34.812Z,10.40
2022-08-03T09:59:27.743Z,61.00
2022-08-03T10:02:27.255Z,63.25
2022-08-03T10:05:32.655Z,63.25
2022-08-03T10:08:32.030Z,62.50
2022-08-03T10:11:36.254Z,5.40
2022-08-03T10:14:42.081Z,31.00
2022-08-03T10:17:40.375Z,57.25
2022-08-03T10:20:41.465Z,3.00
2022-08-03T10:23:39.406Z,56.50
2022-08-03T10:26:38.766Z,367.25
2022-08-03T10:29:51.066Z,19.20
2022-08-03T10:32:55.202Z,4.60
2022-08-03T10:35:53.561Z,13.40
2022-08-03T10:38:56.589Z,57.75
2022-08-03T10:41:54.895Z,61.25
2022-08-03T10:45:07.030Z,59.33
2022-08-03T10:48:04.834Z,7.60
2022-08-03T10:51:02.088Z,3.40
2022-08-03T10:53:59.857Z,58.67
2022-08-03T10:57:18.266Z,63.75
2022-08-03T11:00:19.655Z,60.00
2022-08-03T11:03:17.883Z,65.50
2022-08-03T11:06:19.828Z,6.50
2022-08-03T11:09:18.579Z,58.00
2022-08-03T11:12:30.361Z,3.25
2022-08-03T11:15:33.505Z,63.67
2022-08-03T11:18:31.283Z,65.25
2022-08-03T11:21:50.073Z,4.00
2022-08-03T11:24:51.155Z,62.33
2022-08-03T11:27:48.314Z,5.60
2022-08-03T11:30:45.250Z,3.00
2022-08-03T11:33:42.537Z,2.50
2022-08-03T11:37:22.999Z,3.00
2022-08-03T11:40:40.212Z,56.25
2022-08-03T11:43:41.827Z,66.33
2022-08-03T11:46:39.278Z,62.67
2022-08-03T11:49:36.046Z,3.00
2022-08-03T11:52:38.454Z,4.75
2022-08-03T11:55:35.968Z,5.50
2022-08-03T11:59:11.319Z,3.50
2022-08-03T12:01:50.381Z,4.00
2022-08-03T12:04:54.271Z,5.50
2022-08-03T12:08:04.100Z,4.00
2022-08-03T12:11:06.625Z,3.25
2022-08-03T12:14:48.823Z,2.75
2022-08-03T12:17:21.801Z,5.00
2022-08-03T12:20:34.955Z,4.50
2022-08-03T12:23:36.048Z,4.00
2022-08-03T12:26:58.351Z,4.50
2022-08-03T12:29:57.286Z,5.00
2022-08-03T12:32:56.885Z,2.50
2022-08-03T12:36:10.042Z,3.75
2022-08-03T12:39:08.757Z,6.00
2022-08-03T12:42:06.369Z,6.25
2022-08-03T12:45:25.819Z,5.00
2022-08-03T12:48:23.538Z,4.00
2022-08-03T12:51:27.471Z,3.75
2022-08-03T12:54:25.955Z,3.00
2022-08-03T12:57:23.204Z,5.00
2022-08-03T13:00:28.813Z,4.25
2022-08-03T13:03:42.434Z,4.00
2022-08-03T13:06:40.259Z,5.00
2022-08-03T13:09:45.177Z,5.50
2022-08-03T13:12:49.109Z,4.00
2022-08-03T13:15:48.084Z,3.00
2022-08-03T13:18:48.057Z,3.25
2022-08-03T13:22:01.747Z,3.75
2022-08-03T13:25:03.247Z,3.00
2022-08-03T13:28:04.079Z,4.25
2022-08-03T13:31:03.555Z,5.75
2022-08-03T13:34:01.165Z,3.00
2022-08-03T13:37:13.427Z,3.00
2022-08-03T13:40:11.884Z,3.25
2022-08-03T13:43:12.712Z,3.00
2022-08-03T13:46:10.107Z,3.25
2022-08-03T13:49:07.661Z,3.75
2022-08-03T13:52:05.203Z,4.75
2022-08-03T13:55:04.222Z,4.00
2022-08-03T13:58:07.233Z,4.60
2022-08-03T14:01:05.419Z,4.00
2022-08-03T14:04:02.184Z,3.50
2022-08-03T14:06:59.452Z,6.50
2022-08-03T14:09:56.970Z,3.50
2022-08-03T14:12:55.784Z,30.50
2022-08-03T14:15:53.412Z,3.00
2022-08-03T14:18:52.141Z,2.00
2022-08-03T14:22:01.809Z,4.00
2022-08-03T14:25:04.747Z,2.50
2022-08-03T14:28:08.229Z,4.00
2022-08-03T14:31:08.095Z,4.00
2022-08-03T14:34:12.201Z,4.00
2022-08-03T14:37:09.105Z,4.50
2022-08-03T14:40:06.875Z,4.00
2022-08-03T14:43:04.173Z,2.75
2022-08-03T14:46:01.569Z,5.00
2022-08-03T14:50:30.562Z,4.00
2022-08-03T14:52:16.331Z,3.00
2022-08-03T14:55:13.342Z,0.50
2022-08-03T14:58:19.647Z,5.00
2022-08-03T15:02:03.194Z,4.75
2022-08-03T15:04:35.412Z,5.00
2022-08-03T15:07:32.364Z,4.50
2022-08-03T15:10:40.164Z,5.75
2022-08-03T15:13:42.345Z,6.50
2022-08-03T15:16:39.452Z,2.50
2022-08-03T15:20:00.775Z,4.75
2022-08-03T15:22:53.186Z,3.50
2022-08-03T15:26:32.398Z,5.00
2022-08-03T15:29:08.242Z,6.25
2022-08-03T15:32:09.144Z,6.75
2022-08-03T15:35:07.499Z,4.25
2022-08-03T15:38:09.066Z,4.25
2022-08-03T15:41:13.472Z,7.00
2022-08-03T15:44:11.550Z,3.25
2022-08-03T15:47:08.197Z,7.00
2022-08-03T15:50:09.906Z,4.75
2022-08-03T15:53:07.323Z,4.00
2022-08-03T15:56:09.812Z,3.67
2022-08-03T15:59:13.367Z,3.00
2022-08-03T16:02:11.744Z,3.25
2022-08-03T16:05:09.523Z,4.25
2022-08-03T16:08:11.673Z,4.00
2022-08-03T16:11:11.773Z,4.00
2022-08-03T16:14:31.189Z,5.25
2022-08-03T16:17:27.215Z,5.75
2022-08-03T16:20:30.882Z,3.75
2022-08-03T16:23:31.465Z,4.25
2022-08-03T16:26:32.342Z,4.00
2022-08-03T16:29:32.434Z,4.75
2022-08-03T16:32:29.468Z,3.00
2022-08-03T16:35:26.638Z,4.25
2022-08-03T16:38:23.892Z,2.75
2022-08-03T16:41:21.569Z,3.50
2022-08-03T16:44:19.003Z,5.75
2022-08-03T16:47:22.449Z,4.25
2022-08-03T16:50:20.831Z,3.25
2022-08-03T16:53:18.665Z,3.50
2022-08-03T16:56:30.874Z,2.50
2022-08-03T16:59:36.192Z,2.25
2022-08-03T17:02:34.758Z,5.25
2022-08-03T17:05:46.922Z,7.25
2022-08-03T17:08:44.319Z,2.75
2022-08-03T17:11:52.682Z,2.50
2022-08-03T17:14:49.390Z,2.50
2022-08-03T17:17:53.739Z,3.00
2022-08-03T17:20:53.547Z,5.75
2022-08-03T17:24:12.238Z,4.00
2022-08-03T17:27:23.131Z,5.00
2022-08-03T17:30:48.384Z,3.25
2022-08-03T17:33:54.443Z,2.75
2022-08-03T17:37:17.747Z,11.50
2022-08-03T17:40:15.900Z,3.25
2022-08-03T17:44:14.377Z,4.25
2022-08-03T17:46:33.771Z,1.25
2022-08-03T17:49:32.078Z,3.25
2022-08-03T17:52:31.511Z,2.75
2022-08-03T17:55:56.942Z,2.50
2022-08-03T17:59:12.163Z,2.25
2022-08-03T18:02:50.168Z,6.25
2022-08-03T18:06:10.616Z,3.00
2022-08-03T18:10:04.694Z,4.50
2022-08-03T18:12:28.134Z,5.25
2022-08-03T18:15:30.214Z,5.50
2022-08-03T18:18:32.903Z,8.25
2022-08-03T18:22:02.123Z,4.25
2022-08-03T18:24:49.335Z,4.00
2022-08-03T18:27:47.695Z,7.25
2022-08-03T18:30:54.611Z,7.00
2022-08-03T18:34:17.078Z,6.75
2022-08-03T18:37:25.216Z,3.00
2022-08-03T18:40:22.597Z,9.50
2022-08-03T18:43:22.441Z,6.50
2022-08-03T18:46:47.213Z,6.00
2022-08-03T18:50:03.803Z,4.75
2022-08-03T18:53:16.557Z,3.25
2022-08-03T18:56:31.773Z,4.00
2022-08-03T18:59:44.731Z,3.00
2022-08-03T19:02:50.511Z,4.50
2022-08-03T19:06:14.632Z,3.50
2022-08-03T19:09:28.077Z,5.25
2022-08-03T19:12:42.103Z,5.50
2022-08-03T19:15:51.306Z,7.00
2022-08-03T19:18:49.574Z,6.25
2022-08-03T19:21:46.774Z,5.50
2022-08-03T19:24:46.375Z,3.25
2022-08-03T19:27:44.886Z,3.75
2022-08-03T19:30:53.450Z,3.75
2022-08-03T19:33:56.186Z,5.00
2022-08-03T19:36:59.299Z,3.75
2022-08-03T19:39:58.056Z,4.00
2022-08-03T19:42:59.262Z,2.50
2022-08-03T19:46:06.264Z,4.00
2022-08-03T19:49:10.442Z,6.50
2022-08-03T19:52:12.907Z,3.50
2022-08-03T19:55:13.765Z,3.25
2022-08-03T19:58:24.345Z,4.00
2022-08-03T20:01:26.030Z,3.50
2022-08-03T20:04:25.262Z,4.50
2022-08-03T20:07:23.019Z,4.75
2022-08-03T20:10:20.977Z,6.00
2022-08-03T20:13:19.348Z,6.50
2022-08-03T20:16:16.407Z,5.50
2022-08-03T20:19:14.456Z,3.25
2022-08-03T20:22:14.298Z,5.50
2022-08-03T20:25:11.820Z,5.50
2022-08-03T20:28:15.229Z,5.00
2022-08-03T20:31:12.683Z,6.50
2022-08-03T20:34:09.427Z,8.00
2022-08-03T20:37:07.523Z,4.75
2022-08-03T20:40:10.179Z,5.00
2022-08-03T20:43:08.344Z,5.25
2022-08-03T20:46:29.566Z,4.00
2022-08-03T20:49:23.468Z,4.00
2022-08-03T20:52:20.788Z,6.25
2022-08-03T20:55:48.193Z,3.75
2022-08-03T20:58:41.637Z,5.25
2022-08-03T21:01:39.170Z,3.50
2022-08-03T21:04:36.610Z,5.00
2022-08-03T21:08:05.263Z,5.50
2022-08-03T21:11:04.011Z,6.75
2022-08-03T21:14:02.714Z,5.25
2022-08-03T21:17:03.593Z,2.50
2022-08-03T21:20:02.933Z,4.50
2022-08-03T21:23:00.921Z,21.25
2022-08-03T21:25:58.675Z,9.50
2022-08-03T21:28:56.406Z,6.25
2022-08-03T21:31:53.786Z,10.00
2022-08-03T21:34:50.714Z,8.00
2022-08-03T21:38:09.078Z,10.50
2022-08-03T21:41:08.892Z,6.75
2022-08-03T21:44:05.771Z,7.75
2022-08-03T21:47:02.702Z,5.75
2022-08-03T21:50:08.624Z,7.00
2022-08-03T21:53:06.988Z,5.00
2022-08-03T21:56:09.799Z,6.25
2022-08-03T21:59:08.654Z,5.75
2022-08-03T22:02:05.867Z,6.50
2022-08-03T22:05:18.615Z,5.00
2022-08-03T22:08:35.604Z,6.00
2022-08-03T22:11:34.727Z,4.75
2022-08-03T22:14:34.811Z,6.50
2022-08-03T22:17:53.683Z,4.50
2022-08-03T22:20:51.044Z,8.50
2022-08-03T22:23:50.495Z,5.50
2022-08-03T22:27:06.551Z,8.75
2022-08-03T22:30:12.595Z,8.50
2022-08-03T22:33:11.226Z,4.50
2022-08-03T22:36:08.874Z,6.75
2022-08-03T22:39:05.641Z,9.25
2022-08-03T22:42:03.399Z,10.25
2022-08-03T22:45:01.721Z,9.25
2022-08-03T22:47:58.897Z,6.00
2022-08-03T22:50:56.003Z,9.75
2022-08-03T22:53:52.457Z,7.75
2022-08-03T22:56:50.235Z,5.50
2022-08-03T22:59:48.038Z,8.75
2022-08-03T23:02:47.256Z,11.75
2022-08-03T23:06:01.573Z,9.25
2022-08-03T23:09:01.912Z,11.50
2022-08-03T23:11:58.870Z,14.00
2022-08-03T23:14:56.610Z,13.50
2022-08-03T23:17:57.903Z,15.25
2022-08-03T23:20:58.408Z,15.40
2022-08-03T23:23:55.543Z,9.00
2022-08-03T23:26:52.847Z,14.60
2022-08-03T23:29:49.509Z,18.00
2022-08-03T23:32:46.711Z,13.50
2022-08-03T23:36:28.528Z,15.20
2022-08-03T23:39:18.063Z,16.50
2022-08-03T23:42:18.147Z,12.50
2022-08-03T23:45:16.262Z,13.25
2022-08-03T23:48:13.700Z,14.75
2022-08-03T23:51:31.151Z,15.25
2022-08-03T23:54:47.076Z,11.75
2022-08-03T23:57:59.553Z,14.75
